createdAt,value
2023-03-20T00:01:30.927Z,6.30
2023-03-20T00:03:58.574Z,6.30
2023-03-20T00:06:32.369Z,6.40
2023-03-20T00:09:07.386Z,6.40
2023-03-20T00:11:41.432Z,6.40
2023-03-20T00:14:16.090Z,6.30
2023-03-20T00:16:47.600Z,6.30
2023-03-20T00:19:27.552Z,6.30
2023-03-20T00:21:56.081Z,6.30
2023-03-20T00:24:24.575Z,6.20
2023-03-20T00:26:53.889Z,6.30
2023-03-20T00:29:24.708Z,6.20
2023-03-20T00:31:53.996Z,6.20
2023-03-20T00:34:23.751Z,6.20
2023-03-20T00:36:52.862Z,6.20
2023-03-20T00:39:20.529Z,6.20
2023-03-20T00:41:53.294Z,6.30
2023-03-20T00:44:53.933Z,6.20
2023-03-20T00:47:25.680Z,6.20
2023-03-20T00:49:54.758Z,6.20
2023-03-20T00:52:23.507Z,6.30
2023-03-20T00:54:52.289Z,6.20
2023-03-20T00:57:25.562Z,6.30
2023-03-20T01:00:02.561Z,6.30
2023-03-20T01:02:31.599Z,6.20
2023-03-20T01:05:01.579Z,6.20
2023-03-20T01:07:29.412Z,6.20
2023-03-20T01:09:57.108Z,6.20
2023-03-20T01:12:25.167Z,6.20
2023-03-20T01:14:56.752Z,6.20
2023-03-20T01:17:26.271Z,6.20
2023-03-20T01:19:54.210Z,6.20
2023-03-20T01:22:21.798Z,6.30
2023-03-20T01:24:49.404Z,6.30
2023-03-20T01:27:19.716Z,6.30
2023-03-20T01:29:47.739Z,6.30
2023-03-20T01:32:18.554Z,6.20
2023-03-20T01:34:51.420Z,6.30
2023-03-20T01:37:27.928Z,6.30
2023-03-20T01:40:00.023Z,6.30
2023-03-20T01:42:28.968Z,6.30
2023-03-20T01:44:56.618Z,6.30
2023-03-20T01:47:26.029Z,6.30
2023-03-20T01:50:19.789Z,6.30
2023-03-20T01:52:52.044Z,6.30
2023-03-20T01:55:21.087Z,6.30
2023-03-20T01:57:58.863Z,6.30
2023-03-20T02:00:26.629Z,6.30
2023-03-20T02:02:55.547Z,6.30
2023-03-20T02:05:46.890Z,6.40
2023-03-20T02:08:30.920Z,6.40
2023-03-20T02:11:04.219Z,6.40
2023-03-20T02:13:33.384Z,6.40
2023-03-20T02:16:08.647Z,6.40
2023-03-20T02:18:59.039Z,6.40
2023-03-20T02:22:05.393Z,6.50
2023-03-20T02:25:15.606Z,6.50
2023-03-20T02:28:07.771Z,6.50
2023-03-20T02:30:48.551Z,6.50
2023-03-20T02:33:40.994Z,6.50
2023-03-20T02:36:17.514Z,6.50
2023-03-20T02:39:07.959Z,6.50
2023-03-20T02:41:57.144Z,6.50
2023-03-20T02:44:44.770Z,6.50
2023-03-20T02:47:21.746Z,6.50
2023-03-20T02:49:53.537Z,6.50
2023-03-20T02:52:21.353Z,6.60
2023-03-20T02:55:18.160Z,6.60
2023-03-20T02:58:16.593Z,6.60
2023-03-20T03:00:54.635Z,6.60
2023-03-20T03:03:34.539Z,6.60
2023-03-20T03:06:10.918Z,6.60
2023-03-20T03:08:44.074Z,6.60
2023-03-20T03:11:14.103Z,6.60
2023-03-20T03:13:57.906Z,6.60
2023-03-20T03:16:38.289Z,6.60
2023-03-20T03:19:10.043Z,6.60
2023-03-20T03:21:40.314Z,6.70
2023-03-20T03:24:41.386Z,6.70
2023-03-20T03:27:37.446Z,6.70
2023-03-20T03:30:16.170Z,6.70
2023-03-20T03:32:58.030Z,6.70
2023-03-20T03:35:26.258Z,6.70
2023-03-20T03:38:28.932Z,6.80
2023-03-20T03:41:15.610Z,6.80
2023-03-20T03:43:53.239Z,6.80
2023-03-20T03:46:25.553Z,6.80
2023-03-20T03:48:56.306Z,6.80
2023-03-20T03:51:28.048Z,6.80
2023-03-20T03:54:08.949Z,6.80
2023-03-20T03:56:42.880Z,6.90
2023-03-20T03:59:20.851Z,6.90
2023-03-20T04:01:51.758Z,6.90
2023-03-20T04:04:21.075Z,6.90
2023-03-20T04:06:48.683Z,6.90
2023-03-20T04:09:16.340Z,6.90
2023-03-20T04:11:48.432Z,7.00
2023-03-20T04:14:16.107Z,7.00
2023-03-20T04:16:43.778Z,7.00
2023-03-20T04:19:11.675Z,7.00
2023-03-20T04:21:39.422Z,7.10
2023-03-20T04:24:08.590Z,7.10
2023-03-20T04:26:36.144Z,7.10
2023-03-20T04:29:04.585Z,7.10
2023-03-20T04:32:04.585Z,7.20
2023-03-20T04:34:55.216Z,7.20
2023-03-20T04:37:43.379Z,7.20
2023-03-20T04:40:12.196Z,7.20
2023-03-20T04:42:42.885Z,7.20
2023-03-20T04:45:13.153Z,7.30
2023-03-20T04:47:41.201Z,7.30
2023-03-20T04:50:10.944Z,7.30
2023-03-20T04:52:38.726Z,7.30
2023-03-20T04:55:07.936Z,7.30
2023-03-20T04:57:35.674Z,7.30
2023-03-20T05:00:04.788Z,7.30
2023-03-20T05:02:32.529Z,7.40
2023-03-20T05:05:00.370Z,7.40
2023-03-20T05:07:29.058Z,7.40
2023-03-20T05:10:04.299Z,7.40
2023-03-20T05:12:38.339Z,7.40
2023-03-20T05:15:24.609Z,7.40
2023-03-20T05:18:11.184Z,7.40
2023-03-20T05:20:54.957Z,7.50
2023-03-20T05:23:41.435Z,7.50
2023-03-20T05:26:34.856Z,7.50
2023-03-20T05:29:27.080Z,7.50
2023-03-20T05:32:13.204Z,7.50
2023-03-20T05:34:59.556Z,7.50
2023-03-20T05:37:42.574Z,7.60
2023-03-20T05:40:32.889Z,7.60
2023-03-20T05:43:23.341Z,7.60
2023-03-20T05:46:04.742Z,7.60
2023-03-20T05:48:41.484Z,7.60
2023-03-20T05:51:38.689Z,7.60
2023-03-20T05:54:11.848Z,7.60
2023-03-20T05:56:42.360Z,7.60
2023-03-20T05:59:32.860Z,7.60
2023-03-20T06:02:38.862Z,7.60
2023-03-20T06:05:26.206Z,7.70
2023-03-20T06:07:54.638Z,7.70
2023-03-20T06:10:24.627Z,7.70
2023-03-20T06:12:52.556Z,7.70
2023-03-20T06:15:24.985Z,7.80
2023-03-20T06:17:59.522Z,7.80
2023-03-20T06:20:28.118Z,7.80
2023-03-20T06:23:01.456Z,7.80
2023-03-20T06:25:29.130Z,7.90
2023-03-20T06:27:57.842Z,7.90
2023-03-20T06:30:25.474Z,7.90
2023-03-20T06:32:54.486Z,7.90
2023-03-20T06:35:30.925Z,8.00
2023-03-20T06:37:59.390Z,8.00
2023-03-20T06:40:28.210Z,8.00
2023-03-20T06:42:56.493Z,8.00
2023-03-20T06:45:30.212Z,8.00
2023-03-20T06:48:01.585Z,8.10
2023-03-20T06:50:29.255Z,8.10
2023-03-20T06:52:59.513Z,8.10
2023-03-20T06:55:50.694Z,8.10
2023-03-20T06:58:19.016Z,8.10
2023-03-20T07:00:50.278Z,8.10
2023-03-20T07:03:18.118Z,8.10
2023-03-20T07:05:48.646Z,8.10
2023-03-20T07:08:17.223Z,8.20
2023-03-20T07:10:44.785Z,8.20
2023-03-20T07:13:14.411Z,8.20
2023-03-20T07:15:57.489Z,8.20
2023-03-20T07:18:33.533Z,8.20
2023-03-20T07:21:03.850Z,8.20
2023-03-20T07:23:34.541Z,8.30
2023-03-20T07:26:05.478Z,8.20
2023-03-20T07:28:34.726Z,8.30
2023-03-20T07:31:24.638Z,8.30
2023-03-20T07:34:24.536Z,8.40
2023-03-20T07:36:53.183Z,8.30
2023-03-20T07:39:23.370Z,8.30
2023-03-20T07:42:14.063Z,8.40
2023-03-20T07:44:54.119Z,8.40
2023-03-20T07:47:21.942Z,8.40
2023-03-20T07:49:49.500Z,8.50
2023-03-20T07:52:17.266Z,8.50
2023-03-20T07:54:44.964Z,8.50
2023-03-20T07:57:12.527Z,8.50
2023-03-20T07:59:40.932Z,8.60
2023-03-20T08:02:16.760Z,8.60
2023-03-20T08:04:47.560Z,8.70
2023-03-20T08:07:15.751Z,8.70
2023-03-20T08:09:43.440Z,8.80
2023-03-20T08:14:39.798Z,8.80
2023-03-20T08:17:14.962Z,8.80
2023-03-20T08:19:44.477Z,8.90
2023-03-20T08:22:12.441Z,8.90
2023-03-20T08:24:42.912Z,9.00
2023-03-20T08:27:10.718Z,9.00
2023-03-20T08:29:39.684Z,9.00
2023-03-20T08:32:07.390Z,9.10
2023-03-20T08:34:34.972Z,9.20
2023-03-20T08:37:05.833Z,9.20
2023-03-20T08:39:33.746Z,9.20
2023-03-20T08:42:01.513Z,9.30
2023-03-20T08:44:29.243Z,9.30
2023-03-20T08:46:57.073Z,9.30
2023-03-20T08:49:24.813Z,9.40
2023-03-20T08:51:52.366Z,9.40
2023-03-20T08:54:20.017Z,9.50
2023-03-20T08:56:47.547Z,9.50
2023-03-20T08:59:15.114Z,9.60
2023-03-20T09:01:49.725Z,9.80
2023-03-20T09:04:18.697Z,9.70
2023-03-20T09:06:46.963Z,9.80
2023-03-20T09:09:16.047Z,9.90
2023-03-20T09:11:43.678Z,10.00
2023-03-20T09:14:11.368Z,10.00
2023-03-20T09:16:41.400Z,10.00
2023-03-20T09:19:08.970Z,10.00
2023-03-20T09:21:39.565Z,10.10
2023-03-20T09:24:08.215Z,10.10
2023-03-20T09:26:36.124Z,10.10
2023-03-20T09:29:04.115Z,10.20
2023-03-20T09:31:32.058Z,10.20
2023-03-20T09:33:59.737Z,10.30
2023-03-20T09:36:27.321Z,10.40
2023-03-20T09:38:54.994Z,10.50
2023-03-20T09:41:27.545Z,10.80
2023-03-20T09:44:20.319Z,10.80
2023-03-20T09:47:19.341Z,10.80
2023-03-20T09:49:59.204Z,10.90
2023-03-20T09:52:40.097Z,10.90
2023-03-20T09:55:16.130Z,10.90
2023-03-20T09:57:49.309Z,11.00
2023-03-20T10:00:28.322Z,11.00
2023-03-20T10:03:02.420Z,11.10
2023-03-20T10:05:35.734Z,11.30
2023-03-20T10:08:05.588Z,11.30
2023-03-20T10:10:51.744Z,11.50
2023-03-20T10:13:37.497Z,11.70
2023-03-20T10:16:07.780Z,11.70
2023-03-20T10:18:41.322Z,11.80
2023-03-20T10:21:22.762Z,11.80
2023-03-20T10:24:03.345Z,12.00
2023-03-20T10:26:36.030Z,12.00
2023-03-20T10:29:38.721Z,12.10
2023-03-20T10:32:20.383Z,12.30
2023-03-20T10:34:58.184Z,12.30
2023-03-20T10:37:58.087Z,12.50
2023-03-20T10:40:29.049Z,12.50
2023-03-20T10:43:02.317Z,12.60
2023-03-20T10:45:45.777Z,12.90
2023-03-20T10:48:20.544Z,13.00
2023-03-20T10:50:53.333Z,13.00
2023-03-20T10:53:42.437Z,13.10
2023-03-20T10:56:17.052Z,13.20
2023-03-20T10:58:48.436Z,13.20
2023-03-20T11:01:16.527Z,13.30
2023-03-20T11:03:44.175Z,13.40
2023-03-20T11:06:22.827Z,13.50
2023-03-20T11:08:52.406Z,13.60
2023-03-20T11:11:25.534Z,13.70
2023-03-20T11:13:54.087Z,13.60
2023-03-20T11:16:26.163Z,13.70
2023-03-20T11:18:56.977Z,13.70
2023-03-20T11:21:31.788Z,13.80
2023-03-20T11:24:01.168Z,13.80
2023-03-20T11:26:39.015Z,13.90
2023-03-20T11:29:35.157Z,14.00
2023-03-20T11:32:18.850Z,14.10
2023-03-20T11:34:59.330Z,14.30
2023-03-20T11:37:33.657Z,14.40
2023-03-20T11:40:25.649Z,14.50
2023-03-20T11:43:03.928Z,14.90
2023-03-20T11:45:38.641Z,15.20
2023-03-20T11:48:13.428Z,15.20
2023-03-20T11:50:47.392Z,15.20
2023-03-20T11:53:39.512Z,15.10
2023-03-20T11:56:12.192Z,15.10
2023-03-20T11:59:03.465Z,15.00
2023-03-20T12:01:47.112Z,14.80
2023-03-20T12:04:20.577Z,14.70
2023-03-20T12:07:00.572Z,14.70
2023-03-20T12:09:47.505Z,14.60
2023-03-20T12:12:41.171Z,14.80
2023-03-20T12:15:38.262Z,14.80
2023-03-20T12:18:25.980Z,14.80
2023-03-20T12:21:16.886Z,15.10
2023-03-20T12:24:01.811Z,15.10
2023-03-20T12:26:36.703Z,15.60
2023-03-20T12:29:31.904Z,15.60
2023-03-20T12:32:16.799Z,15.70
2023-03-20T12:34:53.021Z,15.80
2023-03-20T12:37:24.477Z,16.00
2023-03-20T12:39:55.408Z,16.20
2023-03-20T12:43:05.439Z,16.30
2023-03-20T12:45:44.635Z,16.40
2023-03-20T12:48:16.941Z,16.50
2023-03-20T12:50:54.994Z,16.50
2023-03-20T12:53:45.006Z,16.30
2023-03-20T12:56:15.607Z,16.40
2023-03-20T12:59:20.082Z,16.20
2023-03-20T13:02:47.604Z,16.10
2023-03-20T13:05:45.702Z,15.80
2023-03-20T13:08:48.001Z,15.60
2023-03-20T13:11:40.547Z,15.50
2023-03-20T13:14:24.484Z,15.60
2023-03-20T13:17:13.163Z,15.80
2023-03-20T13:19:48.295Z,15.90
2023-03-20T13:22:32.341Z,15.90
2023-03-20T13:25:11.811Z,16.00
2023-03-20T13:27:52.533Z,16.10
2023-03-20T13:30:44.396Z,16.20
2023-03-20T13:33:26.393Z,16.20
2023-03-20T13:36:17.059Z,16.20
2023-03-20T13:38:50.004Z,16.30
2023-03-20T13:41:24.391Z,16.60
2023-03-20T13:43:57.379Z,16.60
2023-03-20T13:46:49.865Z,16.60
2023-03-20T13:49:37.649Z,16.70
2023-03-20T13:52:14.276Z,16.60
2023-03-20T13:55:01.085Z,16.50
2023-03-20T13:57:58.629Z,16.40
2023-03-20T14:00:47.556Z,16.20
2023-03-20T14:03:19.656Z,16.20
2023-03-20T14:05:47.850Z,16.10
2023-03-20T14:08:37.903Z,16.00
2023-03-20T14:11:21.036Z,15.90
2023-03-20T14:13:50.457Z,15.80
2023-03-20T14:16:19.952Z,15.80
2023-03-20T14:19:15.161Z,15.80
2023-03-20T14:21:49.888Z,15.80
2023-03-20T14:24:20.528Z,15.80
2023-03-20T14:26:59.185Z,15.80
2023-03-20T14:29:29.542Z,15.70
2023-03-20T14:32:06.173Z,15.70
2023-03-20T14:35:14.546Z,15.70
2023-03-20T14:38:14.985Z,15.60
2023-03-20T14:41:15.109Z,15.60
2023-03-20T14:43:43.248Z,15.60
2023-03-20T14:46:31.844Z,15.70
2023-03-20T14:49:04.732Z,15.60
2023-03-20T14:51:44.196Z,15.50
2023-03-20T14:54:27.701Z,15.50
2023-03-20T14:57:07.792Z,15.40
2023-03-20T14:59:36.064Z,15.40
2023-03-20T15:02:04.268Z,15.30
2023-03-20T15:04:37.561Z,15.30
2023-03-20T15:07:14.869Z,15.30
2023-03-20T15:09:45.655Z,15.30
2023-03-20T15:12:17.804Z,15.30
2023-03-20T15:15:02.602Z,15.20
2023-03-20T15:17:40.768Z,15.20
2023-03-20T15:20:18.730Z,15.10
2023-03-20T15:22:57.097Z,15.10
2023-03-20T15:25:29.623Z,15.00
2023-03-20T15:27:57.356Z,14.90
2023-03-20T15:30:25.912Z,14.90
2023-03-20T15:32:55.428Z,14.90
2023-03-20T15:35:27.027Z,14.80
2023-03-20T15:37:57.084Z,14.80
2023-03-20T15:40:27.044Z,14.80
2023-03-20T15:43:26.823Z,14.80
2023-03-20T15:46:16.344Z,14.70
2023-03-20T15:48:50.858Z,14.60
2023-03-20T15:51:21.105Z,14.60
2023-03-20T15:56:19.981Z,14.50
2023-03-20T15:58:49.938Z,14.40
2023-03-20T16:01:22.549Z,14.30
2023-03-20T16:03:52.620Z,14.30
2023-03-20T16:06:24.372Z,14.30
2023-03-20T16:09:05.927Z,14.20
2023-03-20T16:11:39.801Z,14.20
2023-03-20T16:14:15.618Z,14.20
2023-03-20T16:16:47.030Z,14.20
2023-03-20T16:19:15.215Z,14.20
2023-03-20T16:21:55.828Z,14.10
2023-03-20T16:24:39.644Z,14.10
2023-03-20T16:27:11.087Z,14.10
2023-03-20T16:29:43.596Z,14.00
2023-03-20T16:32:28.063Z,13.90
2023-03-20T16:34:57.720Z,13.90
2023-03-20T16:37:31.823Z,13.90
2023-03-20T16:40:32.600Z,13.80
2023-03-20T16:43:12.750Z,13.80
2023-03-20T16:45:44.096Z,13.80
2023-03-20T16:48:11.649Z,13.70
2023-03-20T16:50:44.783Z,13.60
2023-03-20T16:53:15.838Z,13.60
2023-03-20T16:55:46.851Z,13.60
2023-03-20T16:58:27.775Z,13.50
2023-03-20T17:01:05.009Z,13.50
2023-03-20T17:03:48.397Z,13.40
2023-03-20T17:06:35.649Z,13.30
2023-03-20T17:09:19.336Z,13.30
2023-03-20T17:11:58.664Z,13.30
2023-03-20T17:14:29.399Z,13.20
2023-03-20T17:17:00.401Z,13.10
2023-03-20T17:19:28.079Z,13.10
2023-03-20T17:21:57.504Z,13.10
2023-03-20T17:24:27.654Z,13.00
2023-03-20T17:26:56.378Z,13.00
2023-03-20T17:29:26.509Z,13.00
2023-03-20T17:31:54.354Z,13.00
2023-03-20T17:34:22.130Z,13.00
2023-03-20T17:36:49.798Z,12.90
2023-03-20T17:39:21.719Z,12.90
2023-03-20T17:41:49.466Z,12.90
2023-03-20T17:44:22.455Z,12.90
2023-03-20T17:46:58.481Z,12.80
2023-03-20T17:49:27.504Z,12.80
2023-03-20T17:51:55.887Z,12.80
2023-03-20T17:54:23.486Z,12.80
2023-03-20T17:56:51.227Z,12.70
2023-03-20T17:59:18.911Z,12.70
2023-03-20T18:01:46.665Z,12.70
2023-03-20T18:04:14.265Z,12.70
2023-03-20T18:06:41.899Z,12.70
2023-03-20T18:09:14.666Z,12.70
2023-03-20T18:11:42.562Z,12.70
2023-03-20T18:14:12.368Z,12.60
2023-03-20T18:16:43.322Z,12.60
2023-03-20T18:19:23.621Z,12.60
2023-03-20T18:21:51.579Z,12.60
2023-03-20T18:24:19.308Z,12.50
2023-03-20T18:26:47.464Z,12.40
2023-03-20T18:29:15.362Z,12.50
2023-03-20T18:31:45.798Z,12.40
2023-03-20T18:34:13.924Z,12.40
2023-03-20T18:36:41.516Z,12.30
2023-03-20T18:39:12.529Z,12.30
2023-03-20T18:41:40.212Z,12.20
2023-03-20T18:44:07.910Z,12.20
2023-03-20T18:46:38.333Z,12.20
2023-03-20T18:49:07.491Z,12.10
2023-03-20T18:51:35.183Z,12.10
2023-03-20T18:54:02.866Z,12.00
2023-03-20T18:56:32.312Z,12.00
2023-03-20T18:59:00.489Z,12.00
2023-03-20T19:01:28.068Z,12.00
2023-03-20T19:03:56.543Z,11.90
2023-03-20T19:06:24.197Z,11.90
2023-03-20T19:08:52.580Z,11.90
2023-03-20T19:11:21.662Z,11.80
2023-03-20T19:13:52.430Z,11.80
2023-03-20T19:16:29.148Z,11.80
2023-03-20T19:19:01.453Z,11.80
2023-03-20T19:21:33.609Z,11.70
2023-03-20T19:24:04.871Z,11.80
2023-03-20T19:26:34.883Z,11.70
2023-03-20T19:29:03.743Z,11.70
2023-03-20T19:31:31.541Z,11.70
2023-03-20T19:33:59.632Z,11.70
2023-03-20T19:36:33.781Z,11.70
2023-03-20T19:39:04.022Z,11.70
2023-03-20T19:41:32.553Z,11.70
2023-03-20T19:44:01.352Z,11.60
2023-03-20T19:46:40.373Z,11.60
2023-03-20T19:49:20.636Z,11.70
2023-03-20T19:51:49.165Z,11.70
2023-03-20T19:54:17.633Z,11.70
2023-03-20T19:56:45.479Z,11.70
2023-03-20T19:59:16.921Z,11.70
2023-03-20T20:01:46.042Z,11.60
2023-03-20T20:04:14.607Z,11.60
2023-03-20T20:06:42.215Z,11.60
2023-03-20T20:09:12.407Z,11.60
2023-03-20T20:11:40.024Z,11.60
2023-03-20T20:14:09.753Z,11.60
2023-03-20T20:16:40.027Z,11.60
2023-03-20T20:19:08.066Z,11.60
2023-03-20T20:24:23.457Z,11.60
2023-03-20T20:27:11.675Z,11.50
2023-03-20T20:29:43.045Z,11.60
2023-03-20T20:32:13.768Z,11.60
2023-03-20T20:40:21.017Z,11.60
2023-03-20T20:42:51.714Z,11.60
2023-03-20T20:45:21.343Z,11.50
2023-03-20T20:47:50.778Z,11.50
2023-03-20T20:50:21.949Z,11.50
2023-03-20T20:52:51.211Z,11.60
2023-03-20T20:55:36.632Z,11.50
2023-03-20T20:58:05.833Z,11.60
2023-03-20T21:00:48.506Z,11.60
2023-03-20T21:03:18.966Z,11.50
2023-03-20T21:05:46.685Z,11.50
2023-03-20T21:08:18.922Z,11.50
2023-03-20T21:10:47.680Z,11.50
2023-03-20T21:13:15.994Z,11.50
2023-03-20T21:15:45.974Z,11.40
2023-03-20T21:18:14.526Z,11.40
2023-03-20T21:20:42.280Z,11.40
2023-03-20T21:23:09.884Z,11.40
2023-03-20T21:25:41.350Z,11.40
2023-03-20T21:28:10.593Z,11.30
2023-03-20T21:30:54.636Z,11.30
2023-03-20T21:33:33.730Z,11.30
2023-03-20T21:36:01.646Z,11.30
2023-03-20T21:41:18.838Z,11.20
2023-03-20T21:43:47.370Z,11.30
2023-03-20T21:49:57.132Z,11.20
2023-03-20T22:03:12.443Z,11.10
2023-03-20T22:06:31.817Z,11.10
2023-03-20T22:12:06.090Z,11.10
2023-03-20T22:29:03.203Z,10.90
2023-03-20T22:34:53.628Z,10.90
2023-03-20T22:45:12.924Z,10.70
2023-03-20T22:47:40.849Z,10.70
2023-03-20T22:50:11.551Z,10.70
2023-03-20T22:52:48.734Z,10.70
2023-03-20T22:55:19.737Z,10.60
2023-03-20T22:58:05.408Z,10.70
2023-03-20T23:00:35.540Z,10.60
2023-03-20T23:03:19.485Z,10.60
2023-03-20T23:05:51.460Z,10.50
2023-03-20T23:08:19.034Z,10.50
2023-03-20T23:10:48.709Z,10.50
2023-03-20T23:13:19.157Z,10.40
2023-03-20T23:15:48.125Z,10.30
2023-03-20T23:18:18.546Z,10.30
2023-03-20T23:20:46.284Z,10.20
2023-03-20T23:23:13.848Z,10.20
2023-03-20T23:25:41.443Z,10.20
2023-03-20T23:28:09.910Z,10.10
2023-03-20T23:30:45.419Z,10.10
2023-03-20T23:33:17.260Z,10.10
2023-03-20T23:35:45.308Z,10.10
2023-03-20T23:38:12.918Z,10.00
2023-03-20T23:40:47.798Z,10.00
2023-03-20T23:43:18.315Z,10.00
2023-03-20T23:45:46.891Z,10.00
2023-03-20T23:48:15.792Z,10.00
2023-03-20T23:50:52.635Z,10.00
2023-03-20T23:53:21.753Z,10.00
2023-03-20T23:55:55.146Z,9.90
2023-03-20T23:58:26.231Z,9.90
